Time;durP1;ratioP1;P1;durP2;ratioP2;P2;SDS_P1;SDS_P2;PMS_P1;PMS_P2;Temp;Humidity;BMP_temperature;BMP_pressure;BME280_temperature;BME280_humidity;BME280_pressure;Samples;Min_cycle;Max_cycle;Signal;HPM_P1;HPM_P2
2022/07/05 00:02:24;;;;;;;2.28;1.02;;;17.60;95.80;;;;;;6229175;28;20049;-82
2022/07/05 00:05:25;;;;;;;2.85;0.90;;;17.60;95.80;;;;;;6230716;28;20046;-82
2022/07/05 00:08:27;;;;;;;1.15;0.75;;;17.40;95.90;;;;;;6230587;28;20054;-81
2022/07/05 00:11:29;;;;;;;4.60;0.98;;;17.30;96.10;;;;;;6230538;28;20183;-81
2022/07/05 00:17:48;;;;;;;3.38;0.93;;;17.30;96.10;;;;;;6227271;28;20117;-82
2022/07/05 00:20:50;;;;;;;2.40;1.60;;;17.30;96.30;;;;;;6230767;28;20049;-81
2022/07/05 00:23:51;;;;;;;2.90;1.00;;;17.20;96.10;;;;;;6230990;28;20608;-81
2022/07/05 00:26:53;;;;;;;2.13;0.95;;;17.20;96.30;;;;;;6230964;28;20041;-82
2022/07/05 00:29:55;;;;;;;2.13;1.05;;;17.20;96.50;;;;;;6231339;28;20042;-81
2022/07/05 00:32:58;;;;;;;2.55;1.10;;;17.20;96.60;;;;;;6231066;28;20057;-81
2022/07/05 00:36:00;;;;;;;2.22;1.02;;;17.10;96.70;;;;;;6231304;28;20129;-81
2022/07/05 00:39:02;;;;;;;5.32;1.10;;;17.10;96.60;;;;;;6246555;28;20045;-79
2022/07/05 00:42:04;;;;;;;4.97;1.10;;;17.00;96.70;;;;;;6231758;28;20053;-81
2022/07/05 00:45:07;;;;;;;3.60;1.00;;;16.90;96.80;;;;;;6229407;28;20050;-80
2022/07/05 00:48:10;;;;;;;1.88;0.77;;;16.90;97.10;;;;;;6227589;28;20418;-80
2022/07/05 00:51:12;;;;;;;2.05;0.80;;;16.80;97.20;;;;;;6228468;28;20045;-81
2022/07/05 00:54:14;;;;;;;1.55;0.90;;;16.80;97.30;;;;;;6228221;28;20042;-81
2022/07/05 00:57:16;;;;;;;2.70;1.00;;;16.70;97.30;;;;;;6229026;28;20081;-81
2022/07/05 01:00:19;;;;;;;1.27;0.85;;;16.70;97.30;;;;;;6227198;28;20491;-80
2022/07/05 01:03:22;;;;;;;4.82;1.05;;;16.60;97.30;;;;;;6227897;28;20061;-81
2022/07/05 01:06:24;;;;;;;1.92;0.95;;;16.50;97.40;;;;;;6228312;28;20056;-82
2022/07/05 01:09:25;;;;;;;2.13;1.15;;;16.50;97.60;;;;;;6228764;28;20054;-80
2022/07/05 01:12:27;;;;;;;2.80;0.95;;;16.40;97.60;;;;;;6226622;28;20507;-80
2022/07/05 01:15:30;;;;;;;2.40;0.93;;;16.40;97.80;;;;;;6228596;28;20049;-81
2022/07/05 01:18:33;;;;;;;2.65;0.90;;;16.30;97.80;;;;;;6227882;28;20124;-81
2022/07/05 01:21:40;;;;;;;4.45;1.35;;;16.20;97.90;;;;;;6227637;28;20578;-81
2022/07/05 01:24:43;;;;;;;3.58;1.27;;;16.20;97.90;;;;;;6228428;28;20052;-82
2022/07/05 01:27:45;;;;;;;2.33;1.55;;;16.10;98.10;;;;;;6227542;28;20049;-81
2022/07/05 01:30:48;;;;;;;1.70;1.00;;;16.00;98.30;;;;;;6226929;28;20049;-81
2022/07/05 01:33:49;;;;;;;2.70;1.35;;;16.00;98.30;;;;;;6226859;28;20042;-81
2022/07/05 01:36:51;;;;;;;2.90;0.80;;;15.90;98.70;;;;;;6227601;28;20046;-81
2022/07/05 01:39:54;;;;;;;3.42;1.65;;;15.90;98.60;;;;;;6226604;28;20052;-81
2022/07/05 01:42:56;;;;;;;2.10;1.05;;;15.90;98.60;;;;;;6227507;28;20072;-80
2022/07/05 01:46:02;;;;;;;8.80;1.13;;;15.90;98.70;;;;;;6226875;28;20499;-80
2022/07/05 01:49:06;;;;;;;3.22;1.00;;;15.90;98.70;;;;;;6227725;28;20050;-81
2022/07/05 01:52:10;;;;;;;3.47;1.20;;;15.90;98.70;;;;;;6226864;28;20064;-82
2022/07/05 01:55:14;;;;;;;2.60;1.23;;;15.80;98.70;;;;;;6226720;28;20049;-81
2022/07/05 01:58:15;;;;;;;2.30;1.35;;;15.80;98.70;;;;;;6226146;28;20068;-82
2022/07/05 02:01:33;;;;;;;3.03;1.10;;;15.80;98.80;;;;;;6227135;28;20140;-81
2022/07/05 02:04:36;;;;;;;2.63;1.52;;;15.70;98.90;;;;;;6227599;28;20041;-79
2022/07/05 02:07:37;;;;;;;3.58;1.00;;;15.70;98.90;;;;;;6227237;28;20054;-80
2022/07/05 02:10:41;;;;;;;1.73;1.10;;;15.70;98.90;;;;;;6230937;28;20396;-81
2022/07/05 02:13:43;;;;;;;1.60;0.90;;;15.60;98.90;;;;;;6229705;28;20060;-81
2022/07/05 02:16:45;;;;;;;4.60;1.42;;;15.50;98.90;;;;;;6228348;28;20054;-80
2022/07/05 02:19:47;;;;;;;5.68;1.15;;;15.50;99.00;;;;;;6226463;28;20450;-81
2022/07/05 02:22:49;;;;;;;4.80;1.25;;;15.50;99.40;;;;;;6227507;28;20053;-82
2022/07/05 02:25:55;;;;;;;1.75;1.00;;;15.40;99.10;;;;;;6226994;28;20046;-81
2022/07/05 02:28:57;;;;;;;2.90;0.98;;;15.40;99.10;;;;;;6226292;28;20046;-81
2022/07/05 02:31:59;;;;;;;2.95;1.20;;;15.40;99.10;;;;;;6226313;28;20046;-80
2022/07/05 02:35:01;;;;;;;2.83;1.13;;;15.30;99.10;;;;;;6226670;28;20038;-81
2022/07/05 02:38:02;;;;;;;2.50;1.33;;;15.30;99.20;;;;;;6225686;28;20392;-81
2022/07/05 02:41:10;;;;;;;3.50;1.05;;;15.30;99.20;;;;;;6226930;28;20064;-81
2022/07/05 02:44:12;;;;;;;1.45;0.88;;;15.30;99.30;;;;;;6226605;28;20050;-81
2022/07/05 02:47:14;;;;;;;2.88;1.63;;;15.30;99.40;;;;;;6226080;28;20054;-81
2022/07/05 02:50:16;;;;;;;2.10;1.02;;;15.20;99.30;;;;;;6225608;28;20052;-82
2022/07/05 02:53:17;;;;;;;2.20;1.20;;;15.10;99.40;;;;;;6226113;28;20053;-81
2022/07/05 02:56:20;;;;;;;6.57;1.08;;;15.10;99.50;;;;;;6225850;28;20041;-81
2022/07/05 02:59:22;;;;;;;3.00;1.38;;;15.10;99.60;;;;;;6225507;28;20129;-81
2022/07/05 03:02:24;;;;;;;2.85;1.15;;;15.10;99.70;;;;;;6225519;28;20074;-81
2022/07/05 03:05:26;;;;;;;2.38;1.25;;;15.10;99.60;;;;;;6225737;28;20053;-81
2022/07/05 03:08:28;;;;;;;3.08;1.10;;;15.00;99.50;;;;;;6226039;28;20133;-81
2022/07/05 03:11:31;;;;;;;1.52;1.05;;;14.90;99.50;;;;;;6226378;28;20042;-82
2022/07/05 03:14:32;;;;;;;2.00;1.20;;;14.90;99.60;;;;;;6227225;28;20041;-81
2022/07/05 03:17:34;;;;;;;2.95;1.30;;;14.90;99.50;;;;;;6226093;28;20058;-82
2022/07/05 03:20:36;;;;;;;2.85;1.25;;;14.90;99.30;;;;;;6225951;28;20065;-81
2022/07/05 03:23:38;;;;;;;10.88;1.10;;;14.90;99.40;;;;;;6226087;28;20050;-81
2022/07/05 03:26:41;;;;;;;4.90;1.40;;;14.90;99.60;;;;;;6226025;28;20042;-81
2022/07/05 03:29:43;;;;;;;6.50;1.90;;;14.90;99.70;;;;;;6226680;28;20050;-80
2022/07/05 03:32:45;;;;;;;4.10;1.20;;;14.90;99.80;;;;;;6229889;28;20152;-81
2022/07/05 03:35:47;;;;;;;3.20;1.20;;;15.00;99.80;;;;;;6229175;28;20052;-82
2022/07/05 03:38:49;;;;;;;5.28;1.10;;;15.00;99.80;;;;;;6233223;28;20052;-82
2022/07/05 03:41:52;;;;;;;3.20;1.15;;;14.90;99.60;;;;;;6232723;28;20871;-81
2022/07/05 03:44:54;;;;;;;2.53;1.23;;;15.00;99.60;;;;;;6234531;28;20042;-82
2022/07/05 03:47:58;;;;;;;2.55;1.08;;;15.00;99.70;;;;;;6229903;28;20046;-81
2022/07/05 03:51:00;;;;;;;2.15;0.95;;;15.00;99.60;;;;;;6230877;28;20046;-82
2022/07/05 03:54:02;;;;;;;8.05;1.38;;;15.00;99.60;;;;;;6230323;28;20053;-81
2022/07/05 03:57:05;;;;;;;4.68;1.45;;;15.00;99.50;;;;;;6229505;28;20056;-81
2022/07/05 04:00:08;;;;;;;5.38;1.13;;;15.00;99.40;;;;;;6228910;28;20046;-80
2022/07/05 04:03:11;;;;;;;1.10;0.75;;;15.10;99.40;;;;;;6229542;28;20046;-81
2022/07/05 04:06:13;;;;;;;1.85;1.20;;;15.20;99.20;;;;;;6229860;28;20129;-81
2022/07/05 04:09:14;;;;;;;1.42;1.17;;;15.20;99.20;;;;;;6229244;28;20057;-81
2022/07/05 04:12:18;;;;;;;3.17;1.20;;;15.20;99.20;;;;;;6229463;28;20062;-80
2022/07/05 04:15:20;;;;;;;1.25;0.95;;;15.40;99.20;;;;;;6229392;28;20042;-81
2022/07/05 04:18:21;;;;;;;1.67;1.02;;;16.00;98.80;;;;;;6229363;28;20042;-81
2022/07/05 04:21:23;;;;;;;3.90;0.88;;;17.30;96.40;;;;;;6229818;28;20057;-81
2022/07/05 04:24:25;;;;;;;1.73;0.80;;;18.80;93.80;;;;;;6229422;28;20050;-81
2022/07/05 04:27:28;;;;;;;1.33;1.10;;;19.60;92.20;;;;;;6229935;28;20064;-81
2022/07/05 04:30:30;;;;;;;2.30;1.08;;;19.50;91.60;;;;;;6211154;28;20046;-81
2022/07/05 04:33:31;;;;;;;7.63;1.30;;;18.90;92.10;;;;;;6205768;28;20057;-81
2022/07/05 04:36:33;;;;;;;5.82;1.23;;;18.40;92.70;;;;;;6206374;28;20047;-81
2022/07/05 04:39:35;;;;;;;2.60;1.13;;;18.10;93.30;;;;;;6207191;28;20057;-81
2022/07/05 04:42:38;;;;;;;2.25;1.10;;;18.10;93.70;;;;;;6208035;28;20050;-81
2022/07/05 04:45:40;;;;;;;2.88;1.10;;;19.00;93.30;;;;;;6209398;28;20050;-82
2022/07/05 04:48:42;;;;;;;4.22;1.15;;;21.10;90.50;;;;;;6210979;28;20057;-81
2022/07/05 04:51:44;;;;;;;2.50;0.93;;;23.50;82.30;;;;;;6215262;28;20110;-81
2022/07/05 04:54:45;;;;;;;1.40;0.77;;;25.40;73.60;;;;;;6222394;28;20042;-81
2022/07/05 04:57:48;;;;;;;5.22;1.35;;;27.00;67.20;;;;;;6209827;28;20047;-82
2022/07/05 05:00:50;;;;;;;2.20;0.95;;;28.20;61.60;;;;;;6209108;28;20054;-83
2022/07/05 05:03:52;;;;;;;8.32;1.27;;;29.40;57.80;;;;;;6208699;28;20050;-82
2022/07/05 05:06:54;;;;;;;2.88;0.85;;;30.20;54.30;;;;;;6209657;28;20058;-82
2022/07/05 05:09:55;;;;;;;1.67;0.82;;;31.00;51.90;;;;;;6211028;28;20048;-82
2022/07/05 05:12:58;;;;;;;4.03;0.70;;;31.70;49.80;;;;;;6211365;28;20056;-82
2022/07/05 05:16:01;;;;;;;6.97;1.00;;;32.30;47.80;;;;;;6210163;28;20038;-82
2022/07/05 05:19:03;;;;;;;7.63;0.85;;;33.10;46.10;;;;;;6210100;28;20042;-82
2022/07/05 05:22:05;;;;;;;2.47;0.90;;;33.70;44.50;;;;;;6206706;28;20053;-83
2022/07/05 05:25:08;;;;;;;4.03;0.80;;;34.50;43.10;;;;;;6208539;28;20058;-82
2022/07/05 05:28:11;;;;;;;6.60;1.38;;;35.10;41.60;;;;;;6208007;28;20144;-83
2022/07/05 05:31:13;;;;;;;2.72;0.93;;;35.50;40.50;;;;;;6208416;28;20050;-83
2022/07/05 05:34:15;;;;;;;5.55;0.90;;;35.80;39.80;;;;;;6207986;28;20050;-82
2022/07/05 05:37:17;;;;;;;8.02;1.00;;;36.20;38.90;;;;;;6210517;28;20689;-80
2022/07/05 05:40:19;;;;;;;6.22;0.90;;;36.50;38.00;;;;;;6212036;28;20046;-83
2022/07/05 05:43:22;;;;;;;2.15;1.00;;;36.90;37.20;;;;;;6214233;28;20043;-80
2022/07/05 05:46:24;;;;;;;5.55;0.75;;;37.50;35.40;;;;;;6213759;28;20443;-82
2022/07/05 05:49:25;;;;;;;4.20;0.50;;;38.30;34.80;;;;;;6213668;28;20106;-80
2022/07/05 05:52:27;;;;;;;2.10;0.75;;;39.50;33.60;;;;;;6211640;28;20054;-83
2022/07/05 05:55:30;;;;;;;5.57;0.70;;;40.10;32.20;;;;;;6211244;28;20504;-80
2022/07/05 05:58:33;;;;;;;1.30;0.60;;;40.60;31.80;;;;;;6206473;28;20054;-82
2022/07/05 06:01:35;;;;;;;2.92;0.47;;;41.20;31.10;;;;;;6216091;28;20061;-83
2022/07/05 06:04:37;;;;;;;2.53;0.60;;;41.10;30.90;;;;;;6218300;28;20050;-81
2022/07/05 06:07:50;;;;;;;3.67;0.40;;;40.90;31.20;;;;;;6216506;28;20076;-78
2022/07/05 06:10:52;;;;;;;1.25;0.57;;;40.70;30.90;;;;;;6216682;28;20053;-79
2022/07/05 06:13:55;;;;;;;6.25;0.50;;;40.50;31.40;;;;;;6215318;28;20125;-81
2022/07/05 06:16:57;;;;;;;2.90;0.73;;;40.70;31.30;;;;;;6214484;28;20106;-79
2022/07/05 06:19:58;;;;;;;1.23;0.43;;;41.00;31.10;;;;;;6213943;28;20061;-79
2022/07/05 06:23:01;;;;;;;1.85;0.60;;;41.20;30.70;;;;;;6213645;28;20125;-81
2022/07/05 06:26:03;;;;;;;2.22;0.70;;;41.50;30.50;;;;;;6215276;28;20064;-79
2022/07/05 06:29:06;;;;;;;5.50;0.75;;;41.90;30.30;;;;;;6220128;28;20049;-80
2022/07/05 06:32:08;;;;;;;2.92;0.50;;;41.70;29.80;;;;;;6236361;28;20046;-81
2022/07/05 06:35:10;;;;;;;1.00;0.57;;;41.60;30.30;;;;;;6237939;28;20106;-80
2022/07/05 06:38:12;;;;;;;2.10;0.60;;;42.00;30.00;;;;;;6240414;28;20065;-80
2022/07/05 06:41:14;;;;;;;4.85;1.08;;;42.30;29.50;;;;;;6248963;28;20105;-82
2022/07/05 06:44:17;;;;;;;1.75;0.30;;;42.00;29.60;;;;;;6241527;28;20086;-81
2022/07/05 06:47:19;;;;;;;2.15;0.50;;;42.10;29.60;;;;;;6243439;28;20110;-80
2022/07/05 06:50:20;;;;;;;7.45;0.68;;;42.50;29.50;;;;;;6242870;28;20101;-81
2022/07/05 06:53:22;;;;;;;3.13;0.75;;;43.00;29.00;;;;;;6244203;28;20093;-80
2022/07/05 06:56:24;;;;;;;4.10;1.13;;;43.30;28.80;;;;;;6242411;28;20054;-81
2022/07/05 06:59:27;;;;;;;3.75;0.60;;;43.60;28.40;;;;;;6241263;28;20468;-80
2022/07/05 07:02:29;;;;;;;3.00;0.63;;;43.60;27.80;;;;;;6241196;28;20050;-80
2022/07/05 07:05:30;;;;;;;4.32;1.27;;;43.50;27.80;;;;;;6240853;28;20128;-82
2022/07/05 07:11:51;;;;;;;5.18;0.82;;;43.60;27.70;;;;;;6242618;28;20046;-80
2022/07/05 07:14:54;;;;;;;4.45;0.90;;;43.80;27.70;;;;;;6243408;28;20045;-80
2022/07/05 07:17:56;;;;;;;2.03;0.50;;;43.90;27.50;;;;;;6238052;28;20799;-80
2022/07/05 07:20:58;;;;;;;2.63;0.73;;;44.10;27.40;;;;;;6236139;28;20045;-82
2022/07/05 07:24:00;;;;;;;6.35;0.80;;;44.50;27.10;;;;;;6237474;28;20053;-81
2022/07/05 07:27:06;;;;;;;2.60;0.63;;;44.80;26.90;;;;;;6215029;28;20062;-79
2022/07/05 07:30:11;;;;;;;0.80;0.35;;;44.90;26.90;;;;;;6211771;28;20108;-81
2022/07/05 07:33:12;;;;;;;2.00;0.68;;;45.40;26.90;;;;;;6218120;28;20054;-81
2022/07/05 07:36:14;;;;;;;1.63;0.95;;;45.40;26.70;;;;;;6220920;28;20112;-81
2022/07/05 07:39:16;;;;;;;4.07;0.85;;;45.60;26.50;;;;;;6139914;28;20054;-80
2022/07/05 07:42:18;;;;;;;2.63;0.93;;;45.50;26.00;;;;;;6209207;28;20052;-80
2022/07/05 07:45:21;;;;;;;3.53;1.02;;;45.60;26.00;;;;;;6207368;28;20042;-81
2022/07/05 07:48:23;;;;;;;5.65;0.85;;;45.70;26.00;;;;;;6220796;28;20042;-82
2022/07/05 07:51:24;;;;;;;4.53;0.98;;;46.10;25.70;;;;;;6219081;28;20052;-82
2022/07/05 07:54:26;;;;;;;3.00;0.70;;;46.30;25.30;;;;;;6219959;28;20053;-83
2022/07/05 07:57:28;;;;;;;3.47;0.82;;;45.90;25.30;;;;;;6216034;28;20504;-82
2022/07/05 08:00:31;;;;;;;4.93;1.00;;;43.40;26.20;;;;;;6226760;28;20054;-81
2022/07/05 08:03:33;;;;;;;1.88;0.50;;;40.40;28.00;;;;;;6219937;28;20121;-80
2022/07/05 08:06:35;;;;;;;4.93;1.30;;;38.00;29.60;;;;;;6218269;28;20121;-83
2022/07/05 08:09:37;;;;;;;7.15;1.08;;;36.20;31.10;;;;;;6219299;28;20060;-84
2022/07/05 08:12:38;;;;;;;3.65;0.57;;;35.00;32.90;;;;;;6214876;28;20062;-84
2022/07/05 08:15:41;;;;;;;3.80;0.40;;;34.00;34.00;;;;;;6215539;28;20050;-83
2022/07/05 08:22:03;;;;;;;0.80;0.35;;;32.60;35.50;;;;;;6214224;28;20054;-84
2022/07/05 08:25:05;;;;;;;3.95;0.40;;;32.10;36.10;;;;;;6216090;28;20156;-84
2022/07/05 08:28:07;;;;;;;2.85;0.30;;;31.70;36.50;;;;;;6214189;28;20046;-83
2022/07/05 08:31:10;;;;;;;0.75;0.30;;;31.40;36.90;;;;;;6220049;28;20049;-84
2022/07/05 08:34:13;;;;;;;2.65;0.52;;;31.30;36.90;;;;;;6224299;28;20060;-83
2022/07/05 08:37:15;;;;;;;3.13;0.40;;;31.20;37.50;;;;;;6219981;28;20046;-83
2022/07/05 08:40:19;;;;;;;3.95;0.43;;;31.20;37.50;;;;;;6220620;28;20041;-86
2022/07/05 08:43:23;;;;;;;2.25;0.50;;;31.10;37.30;;;;;;6218824;28;20050;-85
2022/07/05 08:46:30;;;;;;;1.77;0.30;;;30.90;37.50;;;;;;6215497;28;20050;-84
2022/07/05 08:49:33;;;;;;;1.37;0.33;;;30.90;37.80;;;;;;6211811;28;20056;-84
2022/07/05 08:52:36;;;;;;;1.52;0.63;;;30.90;37.60;;;;;;6221807;28;20571;-83
2022/07/05 08:55:37;;;;;;;3.35;0.52;;;30.90;37.80;;;;;;6209410;28;20042;-84
2022/07/05 08:58:39;;;;;;;3.00;0.63;;;31.00;37.60;;;;;;6209463;28;20050;-86
2022/07/05 09:01:46;;;;;;;2.58;0.40;;;31.00;37.70;;;;;;6212964;28;20050;-86
2022/07/05 09:04:50;;;;;;;2.67;0.32;;;31.00;37.60;;;;;;6217446;28;20125;-83
2022/07/05 09:07:58;;;;;;;4.18;0.63;;;31.10;38.10;;;;;;6205733;28;20066;-83
2022/07/05 09:11:03;;;;;;;7.93;0.50;;;31.20;38.20;;;;;;6214806;28;20133;-84
2022/07/05 09:14:06;;;;;;;2.53;0.52;;;31.30;38.30;;;;;;6215799;28;20268;-84
2022/07/05 09:17:09;;;;;;;5.07;0.60;;;31.40;38.00;;;;;;6204420;28;20054;-86
2022/07/05 09:20:12;;;;;;;0.95;0.40;;;31.60;38.30;;;;;;6218880;28;20064;-84
2022/07/05 09:23:21;;;;;;;1.48;0.30;;;31.60;38.10;;;;;;6220980;28;20054;-80
2022/07/05 09:26:32;;;;;;;1.30;0.40;;;31.70;37.80;;;;;;6221160;28;20041;-83
2022/07/05 09:29:33;;;;;;;1.27;0.40;;;31.70;37.70;;;;;;6222562;28;20172;-82
2022/07/05 09:32:36;;;;;;;2.78;0.60;;;31.80;37.40;;;;;;6218392;28;20054;-83
2022/07/05 09:35:40;;;;;;;1.95;0.47;;;31.80;37.30;;;;;;6211626;28;20038;-83
2022/07/05 09:38:50;;;;;;;2.58;0.55;;;31.80;37.40;;;;;;6209766;28;20050;-83
2022/07/05 09:42:10;;;;;;;0.88;0.35;;;32.00;36.90;;;;;;6210484;28;20057;-83
2022/07/05 09:45:12;;;;;;;4.60;0.50;;;32.10;37.00;;;;;;6215146;28;20105;-83
2022/07/05 09:48:15;;;;;;;3.38;0.80;;;32.20;36.60;;;;;;6213522;28;20107;-83
2022/07/05 09:51:16;;;;;;;0.45;0.30;;;32.20;36.80;;;;;;6210243;28;20049;-83
2022/07/05 09:54:18;;;;;;;3.10;0.65;;;32.30;36.50;;;;;;6208439;28;20057;-83
2022/07/05 09:57:25;;;;;;;2.72;0.50;;;32.30;35.90;;;;;;6209517;28;20046;-83
2022/07/05 10:00:29;;;;;;;2.15;0.28;;;32.50;35.40;;;;;;6209732;28;20061;-83
2022/07/05 10:03:32;;;;;;;0.75;0.32;;;32.60;34.90;;;;;;6209491;28;20081;-83
2022/07/05 10:06:34;;;;;;;1.45;0.30;;;32.60;35.00;;;;;;6208318;28;20065;-83
2022/07/05 10:09:36;;;;;;;0.50;0.30;;;32.60;35.00;;;;;;6212483;28;20118;-82
2022/07/05 10:12:39;;;;;;;0.63;0.30;;;32.80;35.40;;;;;;6219093;28;20052;-83
2022/07/05 10:15:43;;;;;;;2.53;0.52;;;33.60;34.80;;;;;;6215787;28;20462;-83
2022/07/05 10:18:47;;;;;;;3.10;0.43;;;34.80;33.70;;;;;;6219734;28;20495;-83
2022/07/05 10:21:50;;;;;;;2.45;0.40;;;35.70;32.80;;;;;;6216499;28;20042;-83
2022/07/05 10:24:53;;;;;;;1.08;0.20;;;35.90;32.30;;;;;;6220502;28;20046;-84
2022/07/05 10:27:56;;;;;;;3.47;0.95;;;35.60;32.20;;;;;;6217246;28;20451;-85
2022/07/05 10:30:59;;;;;;;8.07;0.52;;;35.20;32.40;;;;;;6214079;28;20499;-83
2022/07/05 10:34:07;;;;;;;1.48;0.35;;;34.60;32.90;;;;;;6217998;28;20101;-83
2022/07/05 10:37:09;;;;;;;0.75;0.20;;;34.20;33.20;;;;;;6213746;28;20046;-83
2022/07/05 10:40:11;;;;;;;2.80;0.35;;;34.00;32.90;;;;;;6217696;28;20052;-84
2022/07/05 10:43:14;;;;;;;2.67;0.30;;;34.00;32.80;;;;;;6216188;28;20048;-84
2022/07/05 10:46:34;;;;;;;2.35;0.52;;;33.90;33.00;;;;;;6216536;28;20046;-85
2022/07/05 10:49:37;;;;;;;2.67;0.30;;;33.90;33.30;;;;;;6216068;28;20141;-85
2022/07/05 10:52:39;;;;;;;1.83;0.20;;;34.10;33.50;;;;;;6216867;28;20046;-83
2022/07/05 10:55:53;;;;;;;3.85;0.32;;;34.30;32.70;;;;;;6214852;28;20038;-84
2022/07/05 10:59:05;;;;;;;1.02;0.20;;;34.50;32.90;;;;;;6209873;28;20046;-85
2022/07/05 11:02:14;;;;;;;0.77;0.20;;;34.60;32.00;;;;;;6211902;28;20050;-85
2022/07/05 11:05:18;;;;;;;2.83;0.30;;;34.20;32.60;;;;;;6231431;23;20061;-83
2022/07/05 11:08:20;;;;;;;8.90;0.30;;;34.30;32.10;;;;;;6199880;28;20045;-79
2022/07/05 11:11:25;;;;;;;0.77;0.30;;;34.50;32.30;;;;;;6199852;28;20124;-79
2022/07/05 11:14:48;;;;;;;1.13;0.17;;;34.50;31.30;;;;;;6208101;28;20061;-82
2022/07/05 11:17:50;;;;;;;1.17;0.30;;;34.30;31.20;;;;;;6191323;28;20109;-79
2022/07/05 11:21:17;;;;;;;0.98;0.13;;;34.20;31.50;;;;;;6204356;28;20050;-80
2022/07/05 11:24:20;;;;;;;1.02;0.35;;;34.30;31.20;;;;;;6193892;28;20042;-81
2022/07/05 11:27:22;;;;;;;1.77;0.20;;;34.40;30.60;;;;;;6200652;28;20046;-80
2022/07/05 11:30:25;;;;;;;2.45;0.30;;;34.60;31.10;;;;;;6198352;28;20423;-79
2022/07/05 11:33:27;;;;;;;1.42;0.32;;;34.90;30.50;;;;;;6195880;28;20081;-78
2022/07/05 11:36:32;;;;;;;1.80;0.20;;;34.90;30.10;;;;;;6203019;28;20057;-79
2022/07/05 11:39:34;;;;;;;1.40;0.30;;;35.20;29.90;;;;;;6199641;28;20066;-82
2022/07/05 11:42:37;;;;;;;1.48;0.38;;;35.10;29.40;;;;;;6195922;28;20054;-79
2022/07/05 11:45:39;;;;;;;0.30;0.15;;;35.10;29.80;;;;;;6201220;28;20110;-80
2022/07/05 11:48:48;;;;;;;4.78;0.47;;;35.00;30.60;;;;;;6197828;28;20496;-80
2022/07/05 11:51:59;;;;;;;4.32;0.50;;;34.70;31.80;;;;;;6199296;28;20046;-80
2022/07/05 11:55:02;;;;;;;1.08;0.17;;;34.70;31.40;;;;;;6200988;28;20069;-80
2022/07/05 11:58:04;;;;;;;3.25;0.10;;;34.90;31.40;;;;;;6199739;28;20049;-80
2022/07/05 12:01:07;;;;;;;1.08;0.38;;;35.20;31.40;;;;;;6205265;28;20058;-79
2022/07/05 12:04:08;;;;;;;2.92;0.80;;;35.50;31.40;;;;;;6200214;28;20046;-80
2022/07/05 12:07:11;;;;;;;0.73;0.20;;;35.50;30.30;;;;;;6200598;28;20034;-79
2022/07/05 12:13:42;;;;;;;2.75;0.38;;;35.40;30.60;;;;;;6200316;28;20066;-79
2022/07/05 12:16:44;;;;;;;3.30;0.43;;;35.70;30.60;;;;;;6201421;28;20074;-80
2022/07/05 12:19:46;;;;;;;0.68;0.30;;;35.90;30.80;;;;;;6210791;28;20046;-82
2022/07/05 12:22:50;;;;;;;1.20;0.10;;;36.00;30.10;;;;;;6203239;28;20050;-79
2022/07/05 12:25:52;;;;;;;4.70;0.40;;;36.10;30.30;;;;;;6201458;28;20073;-81
2022/07/05 12:28:54;;;;;;;1.50;0.20;;;36.20;30.00;;;;;;6204083;28;20381;-80
2022/07/05 12:32:00;;;;;;;1.80;0.35;;;36.40;29.90;;;;;;6204202;28;20050;-81
2022/07/05 12:35:03;;;;;;;4.87;0.30;;;36.50;29.30;;;;;;6202861;28;20050;-80
2022/07/05 12:38:08;;;;;;;0.70;0.15;;;36.30;29.70;;;;;;6210986;28;20046;-79
2022/07/05 12:41:10;;;;;;;0.75;0.15;;;36.40;29.50;;;;;;6204749;28;20047;-80
2022/07/05 12:44:12;;;;;;;3.45;0.30;;;36.60;29.70;;;;;;6206934;28;20042;-82
2022/07/05 12:47:14;;;;;;;1.45;0.45;;;36.80;29.20;;;;;;6200527;28;20149;-82
2022/07/05 12:50:16;;;;;;;2.95;0.30;;;36.90;29.40;;;;;;6199758;28;20042;-81
2022/07/05 13:00:00;;;;;;;1.58;0.60;;;37.00;29.10;;;;;;6202286;28;20062;-80
2022/07/05 13:03:02;;;;;;;0.57;0.28;;;36.60;29.60;;;;;;6198993;28;20046;-79
2022/07/05 13:06:04;;;;;;;2.63;0.32;;;36.40;29.90;;;;;;6201886;28;21282;-80
2022/07/05 13:09:07;;;;;;;0.43;0.10;;;36.30;29.70;;;;;;6195936;28;20455;-79
2022/07/05 13:12:11;;;;;;;5.88;0.50;;;36.50;30.10;;;;;;6202099;28;20050;-78
2022/07/05 13:15:13;;;;;;;2.17;0.30;;;36.40;30.00;;;;;;6200978;28;20049;-83
2022/07/05 13:18:24;;;;;;;5.63;0.30;;;36.60;30.00;;;;;;6196515;28;20044;-80
2022/07/05 13:21:26;;;;;;;5.65;0.75;;;36.80;30.00;;;;;;6197373;28;20046;-79
2022/07/05 13:24:29;;;;;;;1.80;0.30;;;37.00;30.00;;;;;;6197587;28;20055;-79
2022/07/05 13:27:31;;;;;;;0.80;0.47;;;37.00;29.50;;;;;;6199099;28;20049;-80
2022/07/05 13:30:33;;;;;;;1.13;0.20;;;37.10;29.60;;;;;;6196856;28;20054;-80
2022/07/05 13:33:34;;;;;;;3.58;0.40;;;36.90;29.30;;;;;;6198757;28;20062;-80
2022/07/05 13:36:36;;;;;;;1.15;0.28;;;36.80;29.50;;;;;;6200156;28;20604;-78
2022/07/05 13:39:40;;;;;;;2.17;0.22;;;36.90;29.40;;;;;;6207272;28;20046;-79
2022/07/05 13:42:41;;;;;;;0.98;0.22;;;37.00;29.30;;;;;;6203701;28;20053;-78
2022/07/05 13:45:43;;;;;;;1.10;0.30;;;37.10;29.50;;;;;;6200184;28;20504;-81
2022/07/05 13:48:45;;;;;;;5.07;0.47;;;37.20;29.30;;;;;;6200865;28;20042;-81
2022/07/05 13:51:47;;;;;;;2.47;0.22;;;37.10;29.10;;;;;;6202230;28;20068;-81
2022/07/05 13:54:50;;;;;;;8.20;0.43;;;37.10;29.00;;;;;;6201732;28;20192;-81
2022/07/05 13:57:52;;;;;;;0.60;0.20;;;37.00;29.30;;;;;;6193385;28;20072;-78
2022/07/05 14:00:54;;;;;;;3.70;0.40;;;36.80;29.40;;;;;;6204856;28;20046;-79
2022/07/05 14:03:58;;;;;;;0.77;0.30;;;36.30;29.70;;;;;;6194138;28;20061;-79
2022/07/05 14:07:00;;;;;;;2.47;0.30;;;36.30;30.00;;;;;;6199294;28;20050;-80
2022/07/05 14:10:03;;;;;;;2.67;0.50;;;36.40;29.80;;;;;;6202556;28;20408;-80
2022/07/05 14:13:05;;;;;;;3.05;0.35;;;36.60;29.30;;;;;;6201983;28;20061;-80
2022/07/05 14:16:08;;;;;;;1.13;0.30;;;36.50;28.90;;;;;;6199771;28;20072;-79
2022/07/05 14:19:09;;;;;;;0.75;0.50;;;36.60;28.90;;;;;;6206840;28;20077;-79
2022/07/05 14:22:11;;;;;;;0.88;0.30;;;36.60;29.00;;;;;;6206185;28;20050;-79
2022/07/05 14:25:14;;;;;;;1.40;0.40;;;36.50;29.50;;;;;;6201433;28;20054;-79
2022/07/05 14:28:16;;;;;;;2.70;0.30;;;36.50;29.30;;;;;;6212456;28;20039;-80
2022/07/05 14:31:18;;;;;;;0.30;0.15;;;36.50;29.10;;;;;;6201821;28;20570;-79
2022/07/05 14:34:19;;;;;;;0.98;0.28;;;36.60;28.60;;;;;;6197648;28;20065;-79
2022/07/05 14:37:22;;;;;;;4.20;0.25;;;36.60;28.40;;;;;;6198235;28;20054;-80
2022/07/05 14:40:26;;;;;;;5.82;0.30;;;36.60;29.20;;;;;;6204916;28;20046;-81
2022/07/05 14:43:28;;;;;;;2.38;0.20;;;36.70;29.10;;;;;;6206564;28;20053;-80
2022/07/05 14:46:29;;;;;;;0.85;0.32;;;36.60;28.80;;;;;;6208368;28;20058;-80
2022/07/05 14:49:31;;;;;;;0.57;0.20;;;36.40;28.90;;;;;;6205487;28;20046;-79
2022/07/05 14:52:33;;;;;;;1.20;0.40;;;36.30;29.00;;;;;;6206838;28;20072;-80
2022/07/05 14:55:36;;;;;;;5.38;0.40;;;36.20;29.00;;;;;;6207738;28;20508;-80
2022/07/05 14:58:38;;;;;;;1.30;0.40;;;36.20;29.00;;;;;;6212476;28;20043;-79
2022/07/05 15:01:39;;;;;;;6.43;0.50;;;36.30;29.60;;;;;;6201205;28;20503;-80
2022/07/05 15:04:41;;;;;;;4.35;0.30;;;36.50;29.20;;;;;;6201040;28;20097;-80
2022/07/05 15:07:43;;;;;;;0.60;0.13;;;36.70;29.30;;;;;;6208247;28;20076;-80
2022/07/05 15:10:47;;;;;;;0.65;0.20;;;36.80;28.60;;;;;;6204167;28;20042;-79
2022/07/05 15:13:49;;;;;;;2.72;0.40;;;36.80;28.10;;;;;;6190563;28;20520;-79
2022/07/05 15:16:51;;;;;;;2.95;0.30;;;36.70;28.20;;;;;;6202442;28;20520;-79
2022/07/05 15:19:53;;;;;;;1.20;0.20;;;36.70;28.30;;;;;;6201186;28;20046;-80
2022/07/05 15:22:54;;;;;;;5.55;0.40;;;36.70;28.10;;;;;;6200414;28;20050;-80
2022/07/05 15:25:58;;;;;;;4.38;0.73;;;36.70;28.40;;;;;;6205141;28;20057;-79
2022/07/05 15:29:04;;;;;;;1.27;0.20;;;36.50;27.80;;;;;;6208803;28;20046;-79
2022/07/05 15:32:06;;;;;;;3.08;0.30;;;36.40;27.70;;;;;;6209573;28;20052;-81
2022/07/05 15:35:08;;;;;;;4.05;0.20;;;36.40;28.20;;;;;;6212148;28;20050;-79
2022/07/05 15:38:10;;;;;;;2.53;0.40;;;36.30;28.40;;;;;;6204703;28;20053;-79
2022/07/05 15:41:15;;;;;;;7.50;0.52;;;36.20;28.60;;;;;;6213326;28;20512;-80
2022/07/05 15:44:17;;;;;;;2.85;0.40;;;35.90;28.80;;;;;;6212072;28;20766;-79
2022/07/05 15:47:19;;;;;;;0.40;0.10;;;35.70;29.20;;;;;;6200209;28;20042;-79
2022/07/05 15:50:21;;;;;;;1.50;0.30;;;35.50;28.80;;;;;;6211598;28;20046;-78
2022/07/05 15:53:22;;;;;;;1.48;0.40;;;35.40;28.70;;;;;;6203738;28;20053;-80
2022/07/05 15:56:25;;;;;;;0.65;0.30;;;35.30;28.70;;;;;;6208426;28;20104;-79
2022/07/05 15:59:27;;;;;;;1.92;0.40;;;35.20;28.60;;;;;;6208240;28;20045;-79
2022/07/05 16:02:29;;;;;;;2.75;0.30;;;35.10;28.60;;;;;;6215645;28;20050;-79
2022/07/05 16:05:31;;;;;;;0.95;0.20;;;35.10;28.90;;;;;;6212281;28;20062;-79
2022/07/05 16:08:33;;;;;;;0.38;0.13;;;35.20;29.10;;;;;;6208409;28;20491;-79
2022/07/05 16:11:36;;;;;;;0.30;0.20;;;35.10;29.20;;;;;;6197729;28;20046;-79
2022/07/05 16:14:38;;;;;;;1.55;0.77;;;35.10;29.40;;;;;;6198772;28;20046;-79